sensor_id;sensor_type;location;lat;lon;timestamp;temperature;humidity
51884;DHT22;37915;53.254;6.598;2023-09-07T00:00:13;20.40;99.90
51884;DHT22;37915;53.254;6.598;2023-09-07T00:02:39;20.10;99.90
51884;DHT22;37915;53.254;6.598;2023-09-07T00:05:06;20.10;99.90
51884;DHT22;37915;53.254;6.598;2023-09-07T00:07:33;20.10;99.90
51884;DHT22;37915;53.254;6.598;2023-09-07T00:09:59;20.10;99.90
51884;DHT22;37915;53.254;6.598;2023-09-07T00:12:25;20.20;99.90
51884;DHT22;37915;53.254;6.598;2023-09-07T00:14:53;20.00;99.90
51884;DHT22;37915;53.254;6.598;2023-09-07T00:17:20;20.10;99.90
51884;DHT22;37915;53.254;6.598;2023-09-07T00:19:45;20.10;99.90
51884;DHT22;37915;53.254;6.598;2023-09-07T00:22:14;20.00;99.90
51884;DHT22;37915;53.254;6.598;2023-09-07T00:24:40;20.00;99.90
51884;DHT22;37915;53.254;6.598;2023-09-07T00:27:06;20.00;99.90
51884;DHT22;37915;53.254;6.598;2023-09-07T00:29:36;20.10;99.90
51884;DHT22;37915;53.254;6.598;2023-09-07T00:32:02;19.90;99.90
51884;DHT22;37915;53.254;6.598;2023-09-07T00:34:28;19.70;99.90
51884;DHT22;37915;53.254;6.598;2023-09-07T00:36:57;20.00;99.90
51884;DHT22;37915;53.254;6.598;2023-09-07T00:39:23;19.80;99.90
51884;DHT22;37915;53.254;6.598;2023-09-07T00:41:48;19.80;99.90
51884;DHT22;37915;53.254;6.598;2023-09-07T00:44:14;19.80;99.90
51884;DHT22;37915;53.254;6.598;2023-09-07T00:46:40;19.90;99.90
51884;DHT22;37915;53.254;6.598;2023-09-07T00:49:06;19.60;99.90
51884;DHT22;37915;53.254;6.598;2023-09-07T00:51:32;19.50;99.90
51884;DHT22;37915;53.254;6.598;2023-09-07T00:53:58;19.70;99.90
51884;DHT22;37915;53.254;6.598;2023-09-07T00:56:25;19.40;99.90
51884;DHT22;37915;53.254;6.598;2023-09-07T00:58:52;19.50;99.90
51884;DHT22;37915;53.254;6.598;2023-09-07T01:01:20;19.50;99.90
51884;DHT22;37915;53.254;6.598;2023-09-07T01:03:47;19.30;99.90
51884;DHT22;37915;53.254;6.598;2023-09-07T01:06:18;19.20;99.90
51884;DHT22;37915;53.254;6.598;2023-09-07T01:08:48;19.30;99.90
51884;DHT22;37915;53.254;6.598;2023-09-07T01:11:19;19.20;99.90
51884;DHT22;37915;53.254;6.598;2023-09-07T01:13:48;19.10;99.90
51884;DHT22;37915;53.254;6.598;2023-09-07T01:16:14;19.20;99.90
51884;DHT22;37915;53.254;6.598;2023-09-07T01:18:41;19.10;99.90
51884;DHT22;37915;53.254;6.598;2023-09-07T01:21:08;19.10;99.90
51884;DHT22;37915;53.254;6.598;2023-09-07T01:23:36;19.00;99.90
51884;DHT22;37915;53.254;6.598;2023-09-07T01:26:02;19.00;99.90
51884;DHT22;37915;53.254;6.598;2023-09-07T01:28:28;19.00;99.90
51884;DHT22;37915;53.254;6.598;2023-09-07T01:30:54;18.90;99.90
51884;DHT22;37915;53.254;6.598;2023-09-07T01:33:20;18.80;99.90
51884;DHT22;37915;53.254;6.598;2023-09-07T01:35:46;18.90;99.90
51884;DHT22;37915;53.254;6.598;2023-09-07T01:38:12;19.00;99.90
51884;DHT22;37915;53.254;6.598;2023-09-07T01:40:37;18.90;99.90
51884;DHT22;37915;53.254;6.598;2023-09-07T01:43:03;18.60;99.90
51884;DHT22;37915;53.254;6.598;2023-09-07T01:45:29;18.70;99.90
51884;DHT22;37915;53.254;6.598;2023-09-07T01:47:54;18.60;99.90
51884;DHT22;37915;53.254;6.598;2023-09-07T01:50:20;18.50;99.90
51884;DHT22;37915;53.254;6.598;2023-09-07T01:52:49;18.60;99.90
51884;DHT22;37915;53.254;6.598;2023-09-07T01:55:14;18.60;99.90
51884;DHT22;37915;53.254;6.598;2023-09-07T01:57:40;18.50;99.90
51884;DHT22;37915;53.254;6.598;2023-09-07T02:00:06;18.40;99.90
51884;DHT22;37915;53.254;6.598;2023-09-07T02:02:32;18.30;99.90
51884;DHT22;37915;53.254;6.598;2023-09-07T02:04:58;18.40;99.90
51884;DHT22;37915;53.254;6.598;2023-09-07T02:07:24;18.40;99.90
51884;DHT22;37915;53.254;6.598;2023-09-07T02:09:49;18.30;99.90
51884;DHT22;37915;53.254;6.598;2023-09-07T02:12:15;18.30;99.90
51884;DHT22;37915;53.254;6.598;2023-09-07T02:14:40;18.10;99.90
51884;DHT22;37915;53.254;6.598;2023-09-07T02:17:06;18.00;99.90
51884;DHT22;37915;53.254;6.598;2023-09-07T02:19:32;18.20;99.90
51884;DHT22;37915;53.254;6.598;2023-09-07T02:21:58;17.90;99.90
51884;DHT22;37915;53.254;6.598;2023-09-07T02:24:23;18.00;99.90
51884;DHT22;37915;53.254;6.598;2023-09-07T02:26:49;18.00;99.90
51884;DHT22;37915;53.254;6.598;2023-09-07T02:29:16;18.00;99.90
51884;DHT22;37915;53.254;6.598;2023-09-07T02:31:41;17.90;99.90
51884;DHT22;37915;53.254;6.598;2023-09-07T02:34:07;17.90;99.90
51884;DHT22;37915;53.254;6.598;2023-09-07T02:36:36;17.80;99.90
51884;DHT22;37915;53.254;6.598;2023-09-07T02:39:01;17.70;99.90
51884;DHT22;37915;53.254;6.598;2023-09-07T02:41:27;17.50;99.90
51884;DHT22;37915;53.254;6.598;2023-09-07T02:43:53;17.50;99.90
51884;DHT22;37915;53.254;6.598;2023-09-07T02:46:18;17.40;99.90
51884;DHT22;37915;53.254;6.598;2023-09-07T02:48:44;17.70;99.90
51884;DHT22;37915;53.254;6.598;2023-09-07T02:51:10;17.30;99.90
51884;DHT22;37915;53.254;6.598;2023-09-07T02:53:35;17.50;99.90
51884;DHT22;37915;53.254;6.598;2023-09-07T02:56:01;17.30;99.90
51884;DHT22;37915;53.254;6.598;2023-09-07T02:58:30;17.30;99.90
51884;DHT22;37915;53.254;6.598;2023-09-07T03:00:55;17.40;99.90
51884;DHT22;37915;53.254;6.598;2023-09-07T03:03:21;17.40;99.90
51884;DHT22;37915;53.254;6.598;2023-09-07T03:05:47;17.30;99.90
51884;DHT22;37915;53.254;6.598;2023-09-07T03:08:13;17.40;99.90
51884;DHT22;37915;53.254;6.598;2023-09-07T03:10:39;17.20;99.90
51884;DHT22;37915;53.254;6.598;2023-09-07T03:13:06;17.30;99.90
51884;DHT22;37915;53.254;6.598;2023-09-07T03:15:33;17.20;99.90
51884;DHT22;37915;53.254;6.598;2023-09-07T03:17:59;17.20;99.90
51884;DHT22;37915;53.254;6.598;2023-09-07T03:20:25;17.20;99.90
51884;DHT22;37915;53.254;6.598;2023-09-07T03:22:51;17.20;99.90
51884;DHT22;37915;53.254;6.598;2023-09-07T03:25:17;17.30;99.90
51884;DHT22;37915;53.254;6.598;2023-09-07T03:27:43;17.10;99.90
51884;DHT22;37915;53.254;6.598;2023-09-07T03:30:09;16.90;99.90
51884;DHT22;37915;53.254;6.598;2023-09-07T03:32:35;17.10;99.90
51884;DHT22;37915;53.254;6.598;2023-09-07T03:35:03;17.00;99.90
51884;DHT22;37915;53.254;6.598;2023-09-07T03:37:32;17.10;99.90
51884;DHT22;37915;53.254;6.598;2023-09-07T03:39:58;17.00;99.90
51884;DHT22;37915;53.254;6.598;2023-09-07T03:42:24;17.00;99.90
51884;DHT22;37915;53.254;6.598;2023-09-07T03:44:49;17.00;99.90
51884;DHT22;37915;53.254;6.598;2023-09-07T03:47:15;17.00;99.90
51884;DHT22;37915;53.254;6.598;2023-09-07T03:49:41;17.00;99.90
51884;DHT22;37915;53.254;6.598;2023-09-07T03:52:07;17.00;99.90
51884;DHT22;37915;53.254;6.598;2023-09-07T03:54:33;17.00;99.90
51884;DHT22;37915;53.254;6.598;2023-09-07T03:56:58;17.10;99.90
51884;DHT22;37915;53.254;6.598;2023-09-07T03:59:24;17.10;99.90
51884;DHT22;37915;53.254;6.598;2023-09-07T04:01:49;16.90;99.90
51884;DHT22;37915;53.254;6.598;2023-09-07T04:04:15;17.00;99.90
51884;DHT22;37915;53.254;6.598;2023-09-07T04:06:41;17.00;99.90
51884;DHT22;37915;53.254;6.598;2023-09-07T04:09:07;17.00;99.90
51884;DHT22;37915;53.254;6.598;2023-09-07T04:11:32;17.00;99.90
51884;DHT22;37915;53.254;6.598;2023-09-07T04:13:58;17.10;99.90
51884;DHT22;37915;53.254;6.598;2023-09-07T04:16:24;17.00;99.90
51884;DHT22;37915;53.254;6.598;2023-09-07T04:18:49;16.90;99.90
51884;DHT22;37915;53.254;6.598;2023-09-07T04:21:15;17.00;99.90
51884;DHT22;37915;53.254;6.598;2023-09-07T04:23:41;16.90;99.90
51884;DHT22;37915;53.254;6.598;2023-09-07T04:26:11;16.90;99.90
51884;DHT22;37915;53.254;6.598;2023-09-07T04:28:38;17.10;99.90
51884;DHT22;37915;53.254;6.598;2023-09-07T04:31:06;16.90;99.90
51884;DHT22;37915;53.254;6.598;2023-09-07T04:33:32;16.90;99.90
51884;DHT22;37915;53.254;6.598;2023-09-07T04:36:11;16.90;99.90
51884;DHT22;37915;53.254;6.598;2023-09-07T04:38:38;16.80;99.90
51884;DHT22;37915;53.254;6.598;2023-09-07T04:41:11;16.90;99.90
51884;DHT22;37915;53.254;6.598;2023-09-07T04:43:39;16.90;99.90
51884;DHT22;37915;53.254;6.598;2023-09-07T04:46:12;16.90;99.90
51884;DHT22;37915;53.254;6.598;2023-09-07T04:48:38;16.70;99.90
51884;DHT22;37915;53.254;6.598;2023-09-07T04:51:05;16.90;99.90
51884;DHT22;37915;53.254;6.598;2023-09-07T04:53:33;16.80;99.90
51884;DHT22;37915;53.254;6.598;2023-09-07T04:56:00;16.80;99.90
51884;DHT22;37915;53.254;6.598;2023-09-07T04:58:27;16.90;99.90
51884;DHT22;37915;53.254;6.598;2023-09-07T05:00:53;16.80;99.90
51884;DHT22;37915;53.254;6.598;2023-09-07T05:03:18;16.60;99.90
51884;DHT22;37915;53.254;6.598;2023-09-07T05:05:44;16.80;99.90
51884;DHT22;37915;53.254;6.598;2023-09-07T05:08:10;16.70;99.90
51884;DHT22;37915;53.254;6.598;2023-09-07T05:10:37;16.70;99.90
51884;DHT22;37915;53.254;6.598;2023-09-07T05:13:03;16.70;99.90
51884;DHT22;37915;53.254;6.598;2023-09-07T05:15:29;16.70;99.90
51884;DHT22;37915;53.254;6.598;2023-09-07T05:17:55;16.60;99.90
51884;DHT22;37915;53.254;6.598;2023-09-07T05:20:21;16.80;99.90
51884;DHT22;37915;53.254;6.598;2023-09-07T05:22:47;16.90;99.90
51884;DHT22;37915;53.254;6.598;2023-09-07T05:25:13;16.60;99.90
51884;DHT22;37915;53.254;6.598;2023-09-07T05:27:39;16.70;99.90
51884;DHT22;37915;53.254;6.598;2023-09-07T05:30:05;16.90;99.90
51884;DHT22;37915;53.254;6.598;2023-09-07T05:32:32;16.90;99.90
51884;DHT22;37915;53.254;6.598;2023-09-07T05:34:58;16.90;99.90
51884;DHT22;37915;53.254;6.598;2023-09-07T05:37:23;16.90;99.90
51884;DHT22;37915;53.254;6.598;2023-09-07T05:39:49;16.90;99.90
51884;DHT22;37915;53.254;6.598;2023-09-07T05:42:15;17.00;99.90
51884;DHT22;37915;53.254;6.598;2023-09-07T05:44:41;17.10;99.90
51884;DHT22;37915;53.254;6.598;2023-09-07T05:47:07;17.40;99.90
51884;DHT22;37915;53.254;6.598;2023-09-07T05:49:33;17.20;99.90
51884;DHT22;37915;53.254;6.598;2023-09-07T05:51:58;17.20;99.90
51884;DHT22;37915;53.254;6.598;2023-09-07T05:54:24;17.30;99.90
51884;DHT22;37915;53.254;6.598;2023-09-07T05:56:50;17.30;99.90
51884;DHT22;37915;53.254;6.598;2023-09-07T05:59:15;17.40;99.90
51884;DHT22;37915;53.254;6.598;2023-09-07T06:01:41;17.40;99.90
51884;DHT22;37915;53.254;6.598;2023-09-07T06:04:07;17.40;99.90
51884;DHT22;37915;53.254;6.598;2023-09-07T06:06:33;17.50;99.90
51884;DHT22;37915;53.254;6.598;2023-09-07T06:08:58;17.50;99.90
51884;DHT22;37915;53.254;6.598;2023-09-07T06:11:25;17.60;99.90
51884;DHT22;37915;53.254;6.598;2023-09-07T06:13:51;17.70;99.90
51884;DHT22;37915;53.254;6.598;2023-09-07T06:16:17;17.70;99.90
51884;DHT22;37915;53.254;6.598;2023-09-07T06:18:43;17.70;99.90
51884;DHT22;37915;53.254;6.598;2023-09-07T06:21:09;18.00;99.90
51884;DHT22;37915;53.254;6.598;2023-09-07T06:23:35;17.80;99.90
51884;DHT22;37915;53.254;6.598;2023-09-07T06:26:00;18.00;99.90
51884;DHT22;37915;53.254;6.598;2023-09-07T06:28:26;17.90;99.90
51884;DHT22;37915;53.254;6.598;2023-09-07T06:30:52;18.10;99.90
51884;DHT22;37915;53.254;6.598;2023-09-07T06:33:18;18.20;99.90
51884;DHT22;37915;53.254;6.598;2023-09-07T06:35:44;18.30;99.90
51884;DHT22;37915;53.254;6.598;2023-09-07T06:38:10;18.40;99.90
51884;DHT22;37915;53.254;6.598;2023-09-07T06:40:35;18.30;99.90
51884;DHT22;37915;53.254;6.598;2023-09-07T06:43:01;18.50;99.90
51884;DHT22;37915;53.254;6.598;2023-09-07T06:45:36;18.50;99.90
51884;DHT22;37915;53.254;6.598;2023-09-07T06:48:03;18.50;99.90
51884;DHT22;37915;53.254;6.598;2023-09-07T06:50:28;18.70;99.90
51884;DHT22;37915;53.254;6.598;2023-09-07T06:52:54;18.90;99.90
51884;DHT22;37915;53.254;6.598;2023-09-07T06:55:20;18.70;99.90
51884;DHT22;37915;53.254;6.598;2023-09-07T06:57:46;18.90;99.90
51884;DHT22;37915;53.254;6.598;2023-09-07T07:00:12;19.00;99.90
51884;DHT22;37915;53.254;6.598;2023-09-07T07:02:37;19.10;99.90
51884;DHT22;37915;53.254;6.598;2023-09-07T07:05:04;19.20;99.90
51884;DHT22;37915;53.254;6.598;2023-09-07T07:07:30;19.20;99.90
51884;DHT22;37915;53.254;6.598;2023-09-07T07:09:56;19.30;99.90
51884;DHT22;37915;53.254;6.598;2023-09-07T07:12:22;19.40;99.90
51884;DHT22;37915;53.254;6.598;2023-09-07T07:14:48;19.50;99.90
51884;DHT22;37915;53.254;6.598;2023-09-07T07:17:14;19.60;99.90
51884;DHT22;37915;53.254;6.598;2023-09-07T07:19:39;19.60;99.90
51884;DHT22;37915;53.254;6.598;2023-09-07T07:22:07;19.60;99.90
51884;DHT22;37915;53.254;6.598;2023-09-07T07:24:32;19.80;99.90
51884;DHT22;37915;53.254;6.598;2023-09-07T07:26:58;19.90;99.90
51884;DHT22;37915;53.254;6.598;2023-09-07T07:29:24;20.00;99.90
51884;DHT22;37915;53.254;6.598;2023-09-07T07:31:50;20.10;99.90
51884;DHT22;37915;53.254;6.598;2023-09-07T07:34:15;20.10;99.90
51884;DHT22;37915;53.254;6.598;2023-09-07T07:36:41;20.20;99.90
51884;DHT22;37915;53.254;6.598;2023-09-07T07:39:07;20.30;99.90
51884;DHT22;37915;53.254;6.598;2023-09-07T07:41:33;20.40;99.90
51884;DHT22;37915;53.254;6.598;2023-09-07T07:43:58;20.50;99.90
51884;DHT22;37915;53.254;6.598;2023-09-07T07:46:24;20.60;99.90
51884;DHT22;37915;53.254;6.598;2023-09-07T07:48:50;20.60;99.90
51884;DHT22;37915;53.254;6.598;2023-09-07T07:51:16;20.70;99.90
51884;DHT22;37915;53.254;6.598;2023-09-07T07:53:41;21.00;99.90
51884;DHT22;37915;53.254;6.598;2023-09-07T07:56:17;21.00;99.90
51884;DHT22;37915;53.254;6.598;2023-09-07T07:58:44;21.10;99.90
51884;DHT22;37915;53.254;6.598;2023-09-07T08:01:16;21.20;99.90
51884;DHT22;37915;53.254;6.598;2023-09-07T08:03:42;21.20;99.90
51884;DHT22;37915;53.254;6.598;2023-09-07T08:06:09;21.30;99.90
51884;DHT22;37915;53.254;6.598;2023-09-07T08:08:36;21.50;99.90
51884;DHT22;37915;53.254;6.598;2023-09-07T08:11:01;21.30;99.90
51884;DHT22;37915;53.254;6.598;2023-09-07T08:13:32;21.60;99.90
51884;DHT22;37915;53.254;6.598;2023-09-07T08:16:00;21.50;99.90
51884;DHT22;37915;53.254;6.598;2023-09-07T08:18:25;21.60;99.90
51884;DHT22;37915;53.254;6.598;2023-09-07T08:20:51;21.70;99.90
51884;DHT22;37915;53.254;6.598;2023-09-07T08:23:17;22.10;99.90
51884;DHT22;37915;53.254;6.598;2023-09-07T08:25:42;22.00;99.90
51884;DHT22;37915;53.254;6.598;2023-09-07T08:28:12;22.00;99.90
51884;DHT22;37915;53.254;6.598;2023-09-07T08:30:38;22.10;99.90
51884;DHT22;37915;53.254;6.598;2023-09-07T08:33:04;22.20;99.90
51884;DHT22;37915;53.254;6.598;2023-09-07T08:35:32;22.40;99.90
51884;DHT22;37915;53.254;6.598;2023-09-07T08:38:01;22.40;99.90
51884;DHT22;37915;53.254;6.598;2023-09-07T08:40:30;22.50;99.90
51884;DHT22;37915;53.254;6.598;2023-09-07T08:43:01;22.40;99.90
51884;DHT22;37915;53.254;6.598;2023-09-07T08:45:29;22.70;99.90
51884;DHT22;37915;53.254;6.598;2023-09-07T08:47:57;22.70;99.90
51884;DHT22;37915;53.254;6.598;2023-09-07T08:50:24;22.80;99.90
51884;DHT22;37915;53.254;6.598;2023-09-07T08:52:52;23.00;99.90
51884;DHT22;37915;53.254;6.598;2023-09-07T08:55:18;23.00;99.90
51884;DHT22;37915;53.254;6.598;2023-09-07T08:57:45;23.00;99.90
51884;DHT22;37915;53.254;6.598;2023-09-07T09:00:11;23.30;99.90
51884;DHT22;37915;53.254;6.598;2023-09-07T09:02:42;23.40;99.90
51884;DHT22;37915;53.254;6.598;2023-09-07T09:05:09;23.50;99.90
51884;DHT22;37915;53.254;6.598;2023-09-07T09:07:37;23.50;99.90
51884;DHT22;37915;53.254;6.598;2023-09-07T09:10:05;23.50;99.90
51884;DHT22;37915;53.254;6.598;2023-09-07T09:12:31;23.70;99.90
51884;DHT22;37915;53.254;6.598;2023-09-07T09:14:59;23.80;99.90
51884;DHT22;37915;53.254;6.598;2023-09-07T09:17:26;23.80;99.90
51884;DHT22;37915;53.254;6.598;2023-09-07T09:19:51;24.10;99.90
51884;DHT22;37915;53.254;6.598;2023-09-07T09:22:17;24.30;99.90
51884;DHT22;37915;53.254;6.598;2023-09-07T09:24:43;24.20;99.90
51884;DHT22;37915;53.254;6.598;2023-09-07T09:27:08;24.40;99.90
51884;DHT22;37915;53.254;6.598;2023-09-07T09:29:34;24.50;99.90
51884;DHT22;37915;53.254;6.598;2023-09-07T09:32:04;24.70;99.90
51884;DHT22;37915;53.254;6.598;2023-09-07T09:34:34;25.00;99.90
51884;DHT22;37915;53.254;6.598;2023-09-07T09:37:01;24.80;99.90
51884;DHT22;37915;53.254;6.598;2023-09-07T09:39:29;24.90;99.90
51884;DHT22;37915;53.254;6.598;2023-09-07T09:41:55;25.00;99.90
51884;DHT22;37915;53.254;6.598;2023-09-07T09:44:23;25.10;99.90
51884;DHT22;37915;53.254;6.598;2023-09-07T09:46:52;25.50;99.90
51884;DHT22;37915;53.254;6.598;2023-09-07T09:49:21;26.00;99.90
51884;DHT22;37915;53.254;6.598;2023-09-07T09:51:49;25.40;99.90
51884;DHT22;37915;53.254;6.598;2023-09-07T09:54:20;25.80;99.90
51884;DHT22;37915;53.254;6.598;2023-09-07T09:56:45;25.70;99.90
51884;DHT22;37915;53.254;6.598;2023-09-07T09:59:15;26.30;99.90
51884;DHT22;37915;53.254;6.598;2023-09-07T10:01:46;26.20;99.90
51884;DHT22;37915;53.254;6.598;2023-09-07T10:04:17;26.30;99.90
51884;DHT22;37915;53.254;6.598;2023-09-07T10:06:59;26.00;99.90
51884;DHT22;37915;53.254;6.598;2023-09-07T10:09:32;26.20;99.90
51884;DHT22;37915;53.254;6.598;2023-09-07T10:11:58;26.70;99.90
51884;DHT22;37915;53.254;6.598;2023-09-07T10:14:25;26.80;99.90
51884;DHT22;37915;53.254;6.598;2023-09-07T10:16:53;26.80;99.90
51884;DHT22;37915;53.254;6.598;2023-09-07T10:19:22;27.00;99.90
51884;DHT22;37915;53.254;6.598;2023-09-07T10:21:50;27.20;99.90
51884;DHT22;37915;53.254;6.598;2023-09-07T10:24:33;26.70;99.90
51884;DHT22;37915;53.254;6.598;2023-09-07T10:27:07;26.80;99.90
51884;DHT22;37915;53.254;6.598;2023-09-07T10:29:47;26.90;99.90
51884;DHT22;37915;53.254;6.598;2023-09-07T10:32:15;26.80;99.90
51884;DHT22;37915;53.254;6.598;2023-09-07T10:34:42;27.20;99.90
51884;DHT22;37915;53.254;6.598;2023-09-07T10:37:15;27.20;99.90
51884;DHT22;37915;53.254;6.598;2023-09-07T10:39:42;27.30;99.90
51884;DHT22;37915;53.254;6.598;2023-09-07T10:42:19;27.00;99.90
51884;DHT22;37915;53.254;6.598;2023-09-07T10:44:45;27.30;99.90
51884;DHT22;37915;53.254;6.598;2023-09-07T10:47:12;27.70;99.90
51884;DHT22;37915;53.254;6.598;2023-09-07T10:49:37;27.40;99.90
51884;DHT22;37915;53.254;6.598;2023-09-07T10:52:03;27.60;99.90
51884;DHT22;37915;53.254;6.598;2023-09-07T10:54:29;27.60;99.90
51884;DHT22;37915;53.254;6.598;2023-09-07T10:56:55;27.40;99.90
51884;DHT22;37915;53.254;6.598;2023-09-07T10:59:23;27.50;99.90
51884;DHT22;37915;53.254;6.598;2023-09-07T11:01:48;27.80;99.90
51884;DHT22;37915;53.254;6.598;2023-09-07T11:04:15;27.60;99.90
51884;DHT22;37915;53.254;6.598;2023-09-07T11:06:42;27.40;99.90
51884;DHT22;37915;53.254;6.598;2023-09-07T11:09:09;27.40;99.90
51884;DHT22;37915;53.254;6.598;2023-09-07T11:11:36;27.40;99.90
51884;DHT22;37915;53.254;6.598;2023-09-07T11:14:03;27.40;99.90
51884;DHT22;37915;53.254;6.598;2023-09-07T11:16:30;27.50;99.90
51884;DHT22;37915;53.254;6.598;2023-09-07T11:19:03;27.50;99.90
51884;DHT22;37915;53.254;6.598;2023-09-07T11:21:30;27.30;99.90
51884;DHT22;37915;53.254;6.598;2023-09-07T11:23:58;27.30;99.90
51884;DHT22;37915;53.254;6.598;2023-09-07T11:26:23;27.40;99.90
51884;DHT22;37915;53.254;6.598;2023-09-07T11:28:49;27.50;99.90
51884;DHT22;37915;53.254;6.598;2023-09-07T11:31:18;27.60;99.90
51884;DHT22;37915;53.254;6.598;2023-09-07T11:33:46;27.30;99.90
51884;DHT22;37915;53.254;6.598;2023-09-07T11:36:12;27.20;99.90
51884;DHT22;37915;53.254;6.598;2023-09-07T11:38:38;27.20;99.90
51884;DHT22;37915;53.254;6.598;2023-09-07T11:41:07;27.30;99.90
51884;DHT22;37915;53.254;6.598;2023-09-07T11:43:33;27.30;99.90
51884;DHT22;37915;53.254;6.598;2023-09-07T11:45:59;27.60;99.90
51884;DHT22;37915;53.254;6.598;2023-09-07T11:48:26;27.50;99.90
51884;DHT22;37915;53.254;6.598;2023-09-07T11:50:52;27.40;99.90
51884;DHT22;37915;53.254;6.598;2023-09-07T11:53:17;27.20;99.90
51884;DHT22;37915;53.254;6.598;2023-09-07T11:55:43;27.40;99.90
51884;DHT22;37915;53.254;6.598;2023-09-07T11:58:09;27.50;99.90
51884;DHT22;37915;53.254;6.598;2023-09-07T12:00:35;27.40;99.90
51884;DHT22;37915;53.254;6.598;2023-09-07T12:03:00;27.20;99.90
51884;DHT22;37915;53.254;6.598;2023-09-07T12:05:26;27.40;99.90
51884;DHT22;37915;53.254;6.598;2023-09-07T12:07:52;27.50;99.90
51884;DHT22;37915;53.254;6.598;2023-09-07T12:10:18;27.50;99.90
51884;DHT22;37915;53.254;6.598;2023-09-07T12:12:44;27.30;99.90
51884;DHT22;37915;53.254;6.598;2023-09-07T12:15:10;27.30;99.90
51884;DHT22;37915;53.254;6.598;2023-09-07T12:17:39;27.50;99.90
51884;DHT22;37915;53.254;6.598;2023-09-07T12:20:06;27.70;99.90
51884;DHT22;37915;53.254;6.598;2023-09-07T12:22:36;27.70;99.90
51884;DHT22;37915;53.254;6.598;2023-09-07T12:25:06;27.40;99.90
51884;DHT22;37915;53.254;6.598;2023-09-07T12:27:33;27.70;99.90
51884;DHT22;37915;53.254;6.598;2023-09-07T12:30:00;27.60;99.90
51884;DHT22;37915;53.254;6.598;2023-09-07T12:32:26;27.80;99.90
51884;DHT22;37915;53.254;6.598;2023-09-07T12:34:51;27.60;99.90
51884;DHT22;37915;53.254;6.598;2023-09-07T12:37:19;27.60;99.90
51884;DHT22;37915;53.254;6.598;2023-09-07T12:39:51;27.70;99.90
51884;DHT22;37915;53.254;6.598;2023-09-07T12:42:17;27.90;99.90
51884;DHT22;37915;53.254;6.598;2023-09-07T12:44:44;28.00;99.90
51884;DHT22;37915;53.254;6.598;2023-09-07T12:47:09;27.80;99.90
51884;DHT22;37915;53.254;6.598;2023-09-07T12:49:35;28.00;99.90
51884;DHT22;37915;53.254;6.598;2023-09-07T12:52:01;28.00;99.90
51884;DHT22;37915;53.254;6.598;2023-09-07T12:54:28;28.00;99.90
51884;DHT22;37915;53.254;6.598;2023-09-07T12:56:54;27.80;99.90
51884;DHT22;37915;53.254;6.598;2023-09-07T12:59:19;28.00;99.90
51884;DHT22;37915;53.254;6.598;2023-09-07T13:01:45;28.00;99.90
51884;DHT22;37915;53.254;6.598;2023-09-07T13:04:12;28.10;99.90
51884;DHT22;37915;53.254;6.598;2023-09-07T13:06:38;28.50;99.90
51884;DHT22;37915;53.254;6.598;2023-09-07T13:09:04;28.30;99.90
51884;DHT22;37915;53.254;6.598;2023-09-07T13:11:30;28.40;99.90
51884;DHT22;37915;53.254;6.598;2023-09-07T13:13:56;28.70;99.90
51884;DHT22;37915;53.254;6.598;2023-09-07T13:16:22;28.30;99.90
51884;DHT22;37915;53.254;6.598;2023-09-07T13:18:47;28.60;99.90
51884;DHT22;37915;53.254;6.598;2023-09-07T13:21:13;28.70;99.90
51884;DHT22;37915;53.254;6.598;2023-09-07T13:23:38;28.70;99.90
51884;DHT22;37915;53.254;6.598;2023-09-07T13:26:06;28.70;99.90
51884;DHT22;37915;53.254;6.598;2023-09-07T13:28:32;28.90;99.90
51884;DHT22;37915;53.254;6.598;2023-09-07T13:30:58;28.80;99.90
51884;DHT22;37915;53.254;6.598;2023-09-07T13:33:23;29.20;99.90
51884;DHT22;37915;53.254;6.598;2023-09-07T13:35:50;29.20;99.90
51884;DHT22;37915;53.254;6.598;2023-09-07T13:38:16;29.00;99.90
51884;DHT22;37915;53.254;6.598;2023-09-07T13:40:42;29.40;99.90
51884;DHT22;37915;53.254;6.598;2023-09-07T13:43:08;29.40;99.90
51884;DHT22;37915;53.254;6.598;2023-09-07T13:45:34;29.20;99.90
51884;DHT22;37915;53.254;6.598;2023-09-07T13:48:00;29.40;99.90
51884;DHT22;37915;53.254;6.598;2023-09-07T13:50:26;29.40;99.90
51884;DHT22;37915;53.254;6.598;2023-09-07T13:52:51;29.30;99.90
51884;DHT22;37915;53.254;6.598;2023-09-07T13:55:17;29.40;99.90
51884;DHT22;37915;53.254;6.598;2023-09-07T13:57:43;29.60;99.90
51884;DHT22;37915;53.254;6.598;2023-09-07T14:00:09;29.70;99.90
51884;DHT22;37915;53.254;6.598;2023-09-07T14:02:34;29.80;99.90
51884;DHT22;37915;53.254;6.598;2023-09-07T14:05:00;29.60;99.90
51884;DHT22;37915;53.254;6.598;2023-09-07T14:07:26;29.80;99.90
51884;DHT22;37915;53.254;6.598;2023-09-07T14:09:53;30.10;99.90
51884;DHT22;37915;53.254;6.598;2023-09-07T14:12:19;29.60;99.90
51884;DHT22;37915;53.254;6.598;2023-09-07T14:14:45;29.70;99.90
51884;DHT22;37915;53.254;6.598;2023-09-07T14:17:10;30.20;99.90
51884;DHT22;37915;53.254;6.598;2023-09-07T14:19:36;30.20;99.90
51884;DHT22;37915;53.254;6.598;2023-09-07T14:22:02;29.90;99.90
51884;DHT22;37915;53.254;6.598;2023-09-07T14:24:28;30.20;99.90
51884;DHT22;37915;53.254;6.598;2023-09-07T14:26:53;30.10;99.90
51884;DHT22;37915;53.254;6.598;2023-09-07T14:29:19;30.20;99.90
51884;DHT22;37915;53.254;6.598;2023-09-07T14:31:45;30.40;99.90
51884;DHT22;37915;53.254;6.598;2023-09-07T14:34:12;30.40;99.90
51884;DHT22;37915;53.254;6.598;2023-09-07T14:36:38;30.70;99.90
51884;DHT22;37915;53.254;6.598;2023-09-07T14:39:07;30.60;99.90
51884;DHT22;37915;53.254;6.598;2023-09-07T14:41:35;30.50;99.90
51884;DHT22;37915;53.254;6.598;2023-09-07T14:44:00;30.60;99.90
51884;DHT22;37915;53.254;6.598;2023-09-07T14:46:26;30.50;99.90
51884;DHT22;37915;53.254;6.598;2023-09-07T14:48:52;30.50;99.90
51884;DHT22;37915;53.254;6.598;2023-09-07T14:51:18;30.10;99.90
51884;DHT22;37915;53.254;6.598;2023-09-07T14:53:45;30.20;99.90
51884;DHT22;37915;53.254;6.598;2023-09-07T14:56:11;30.30;99.90
51884;DHT22;37915;53.254;6.598;2023-09-07T14:58:37;30.20;99.90
51884;DHT22;37915;53.254;6.598;2023-09-07T15:01:03;30.10;99.90
51884;DHT22;37915;53.254;6.598;2023-09-07T15:10:47;29.80;99.90
51884;DHT22;37915;53.254;6.598;2023-09-07T15:13:13;29.90;99.90
51884;DHT22;37915;53.254;6.598;2023-09-07T15:15:39;29.80;99.90
51884;DHT22;37915;53.254;6.598;2023-09-07T15:18:06;29.90;99.90
51884;DHT22;37915;53.254;6.598;2023-09-07T15:20:33;29.90;99.90
51884;DHT22;37915;53.254;6.598;2023-09-07T15:22:59;29.90;99.90
51884;DHT22;37915;53.254;6.598;2023-09-07T15:25:25;29.60;99.90
51884;DHT22;37915;53.254;6.598;2023-09-07T15:27:52;29.40;99.90
51884;DHT22;37915;53.254;6.598;2023-09-07T15:30:18;29.60;99.90
51884;DHT22;37915;53.254;6.598;2023-09-07T15:32:44;29.60;99.90